createdAt,value
2022-08-27T00:02:35.090Z,99.90
2022-08-27T00:05:10.673Z,99.90
2022-08-27T00:07:58.066Z,99.90
2022-08-27T00:10:32.618Z,99.90
2022-08-27T00:13:19.077Z,99.90
2022-08-27T00:15:59.102Z,99.90
2022-08-27T00:18:48.457Z,99.90
2022-08-27T00:21:29.067Z,99.90
2022-08-27T00:26:52.076Z,99.90
2022-08-27T00:32:15.199Z,99.90
2022-08-27T00:34:56.152Z,99.90
2022-08-27T00:37:37.096Z,99.90
2022-08-27T00:43:01.105Z,99.90
2022-08-27T00:45:47.199Z,99.90
2022-08-27T00:48:32.118Z,99.90
2022-08-27T00:51:13.173Z,99.90
2022-08-27T00:56:40.766Z,99.90
2022-08-27T00:59:30.102Z,99.90
2022-08-27T01:02:19.418Z,99.90
2022-08-27T01:05:11.120Z,99.90
2022-08-27T01:07:48.218Z,99.90
2022-08-27T01:10:36.092Z,99.90
2022-08-27T01:16:06.168Z,99.90
2022-08-27T01:18:49.115Z,99.90
2022-08-27T01:21:52.109Z,99.90
2022-08-27T01:24:52.112Z,99.90
2022-08-27T01:27:35.145Z,99.90
2022-08-27T01:38:50.102Z,99.90
2022-08-27T01:44:20.907Z,99.90
2022-08-27T01:47:01.189Z,99.90
2022-08-27T01:52:44.132Z,99.90
2022-08-27T01:58:06.123Z,99.90
2022-08-27T02:03:38.157Z,99.90
2022-08-27T02:09:00.146Z,99.90
2022-08-27T02:14:27.146Z,99.90
2022-08-27T02:19:48.143Z,99.90
2022-08-27T02:22:36.160Z,99.90
2022-08-27T02:25:20.137Z,99.90
2022-08-27T02:28:09.321Z,99.90
2022-08-27T02:30:42.817Z,99.90
2022-08-27T02:36:04.420Z,99.90
2022-08-27T02:38:54.184Z,99.90
2022-08-27T02:41:27.960Z,99.90
2022-08-27T02:47:10.154Z,99.90
2022-08-27T02:49:58.148Z,99.90
2022-08-27T02:58:02.152Z,99.90
2022-08-27T03:03:32.162Z,99.90
2022-08-27T03:06:05.895Z,99.90
2022-08-27T03:11:27.848Z,99.90
2022-08-27T03:14:14.184Z,99.90
2022-08-27T03:16:47.719Z,99.90
2022-08-27T03:19:35.174Z,99.90
2022-08-27T03:22:15.173Z,99.90
2022-08-27T03:24:56.448Z,99.90
2022-08-27T03:27:37.172Z,99.90
2022-08-27T03:30:31.182Z,99.90
2022-08-27T03:33:04.722Z,99.90
2022-08-27T03:41:47.257Z,99.90
2022-08-27T03:47:17.191Z,99.90
2022-08-27T03:49:51.282Z,99.90
2022-08-27T03:55:21.566Z,99.90
2022-08-27T03:58:01.211Z,99.90
2022-08-27T04:00:41.313Z,99.90
2022-08-27T04:03:22.207Z,99.90
2022-08-27T04:06:03.637Z,99.90
2022-08-27T04:08:43.198Z,99.90
2022-08-27T04:11:23.474Z,99.90
2022-08-27T04:14:04.184Z,99.90
2022-08-27T04:16:56.040Z,99.90
2022-08-27T04:19:39.211Z,99.90
2022-08-27T04:22:19.252Z,99.90
2022-08-27T04:27:40.291Z,99.90
2022-08-27T04:30:22.241Z,99.90
2022-08-27T04:33:16.228Z,99.90
2022-08-27T04:36:08.232Z,99.90
2022-08-27T04:44:10.271Z,99.90
2022-08-27T04:47:03.201Z,99.90
2022-08-27T04:49:37.299Z,99.90
2022-08-27T04:52:24.210Z,99.90
2022-08-27T04:54:59.044Z,99.90
2022-08-27T04:57:46.213Z,99.90
2022-08-27T05:00:21.302Z,99.90
2022-08-27T05:03:09.224Z,99.90
2022-08-27T05:08:30.248Z,99.90
2022-08-27T05:13:52.210Z,99.90
2022-08-27T05:16:28.635Z,99.90
2022-08-27T05:19:19.247Z,99.90
2022-08-27T05:21:56.607Z,99.90
2022-08-27T05:24:46.008Z,99.90
2022-08-27T05:30:13.251Z,99.90
2022-08-27T05:35:35.247Z,99.90
2022-08-27T05:38:17.306Z,99.90
2022-08-27T05:40:58.236Z,99.90
2022-08-27T05:43:49.856Z,99.90
2022-08-27T05:46:33.312Z,99.00
2022-08-27T05:49:21.245Z,97.90
2022-08-27T05:51:55.260Z,95.90
2022-08-27T05:54:42.240Z,95.70
2022-08-27T05:57:22.321Z,95.40
2022-08-27T06:00:22.242Z,95.20
2022-08-27T06:03:02.378Z,95.80
2022-08-27T06:08:23.318Z,99.10
2022-08-27T06:13:45.337Z,99.90
2022-08-27T06:16:26.318Z,99.90
2022-08-27T06:19:22.259Z,99.90
2022-08-27T06:22:11.030Z,99.90
2022-08-27T06:24:54.264Z,99.90
2022-08-27T06:27:48.260Z,99.90
2022-08-27T06:30:35.266Z,99.90
2022-08-27T06:35:56.261Z,99.90
2022-08-27T06:41:23.432Z,99.90
2022-08-27T06:43:58.577Z,99.90
2022-08-27T06:46:45.383Z,99.90
2022-08-27T06:49:20.335Z,99.90
2022-08-27T06:52:07.261Z,99.90
2022-08-27T06:54:43.386Z,99.90
2022-08-27T06:57:31.270Z,99.90
2022-08-27T07:00:05.567Z,99.90
2022-08-27T07:02:52.327Z,99.90
2022-08-27T07:08:15.265Z,99.90
2022-08-27T07:10:57.146Z,94.90
2022-08-27T07:13:37.293Z,92.60
2022-08-27T07:16:22.690Z,91.00
2022-08-27T07:19:12.293Z,86.60
2022-08-27T07:21:46.405Z,84.90
2022-08-27T07:24:33.286Z,82.40
2022-08-27T07:27:07.423Z,80.30
2022-08-27T07:29:54.304Z,79.00
2022-08-27T07:35:19.294Z,74.20
2022-08-27T07:37:53.349Z,70.50
2022-08-27T07:40:40.312Z,71.60
2022-08-27T07:43:34.966Z,71.20
2022-08-27T07:46:21.331Z,69.00
2022-08-27T07:48:57.347Z,67.00
2022-08-27T07:51:44.326Z,67.50
2022-08-27T07:54:18.444Z,65.60
2022-08-27T07:57:06.298Z,66.20
2022-08-27T08:02:27.329Z,64.80
2022-08-27T08:07:48.917Z,63.90
2022-08-27T08:10:36.287Z,63.30
2022-08-27T08:13:16.322Z,63.30
2022-08-27T08:16:04.298Z,62.50
2022-08-27T08:18:44.331Z,62.60
2022-08-27T08:21:32.328Z,63.70
2022-08-27T08:24:13.417Z,63.10
2022-08-27T08:26:54.397Z,63.40
2022-08-27T08:29:34.300Z,62.40
2022-08-27T08:32:22.342Z,62.50
2022-08-27T08:34:56.430Z,64.30
2022-08-27T08:40:38.747Z,65.00
2022-08-27T08:44:01.096Z,65.30
2022-08-27T08:47:30.344Z,67.00
2022-08-27T08:50:41.429Z,67.70
2022-08-27T08:53:33.322Z,68.20
2022-08-27T08:56:24.504Z,68.00
2022-08-27T08:59:13.337Z,67.10
2022-08-27T09:01:54.781Z,68.10
2022-08-27T09:04:36.343Z,69.30
2022-08-27T09:07:44.916Z,69.40
2022-08-27T09:10:46.330Z,69.20
2022-08-27T09:13:39.335Z,70.30
2022-08-27T09:16:33.377Z,70.50
2022-08-27T09:19:20.388Z,70.70
2022-08-27T09:22:17.418Z,69.50
2022-08-27T09:25:20.825Z,70.30
2022-08-27T09:27:56.410Z,72.00
2022-08-27T09:30:48.391Z,72.50
2022-08-27T09:33:22.449Z,70.10
2022-08-27T09:36:14.363Z,71.10
2022-08-27T09:39:07.503Z,70.20
2022-08-27T09:41:56.369Z,71.70
2022-08-27T09:47:22.336Z,70.70
2022-08-27T09:50:06.859Z,70.20
2022-08-27T09:53:02.363Z,70.20
2022-08-27T09:55:49.480Z,67.90
2022-08-27T09:58:38.371Z,66.70
2022-08-27T10:01:30.417Z,68.80
2022-08-27T10:04:28.445Z,68.50
2022-08-27T10:07:26.368Z,67.30
2022-08-27T10:10:10.957Z,68.80
2022-08-27T10:13:10.744Z,68.90
2022-08-27T10:16:40.513Z,68.00
2022-08-27T10:19:47.361Z,67.70
2022-08-27T10:22:34.510Z,68.30
2022-08-27T10:25:29.347Z,68.40
2022-08-27T10:28:26.521Z,68.10
2022-08-27T10:31:32.445Z,66.40
2022-08-27T10:34:23.475Z,68.20
2022-08-27T10:37:36.634Z,66.30
2022-08-27T10:40:46.406Z,67.20
2022-08-27T10:43:43.648Z,67.70
2022-08-27T10:47:07.411Z,67.20
2022-08-27T10:49:57.110Z,65.70
2022-08-27T10:52:55.397Z,66.30
2022-08-27T10:55:41.223Z,67.30
2022-08-27T10:58:58.387Z,67.90
2022-08-27T11:01:46.426Z,67.50
2022-08-27T11:04:32.501Z,65.70
2022-08-27T11:07:25.412Z,64.50
2022-08-27T11:10:25.417Z,63.90
2022-08-27T11:13:25.425Z,64.60
2022-08-27T11:16:09.504Z,66.80
2022-08-27T11:18:58.414Z,65.50
2022-08-27T11:21:51.588Z,66.60
2022-08-27T11:24:35.409Z,66.20
2022-08-27T11:27:16.522Z,64.90
2022-08-27T11:30:01.406Z,63.40
2022-08-27T11:32:50.499Z,65.50
2022-08-27T11:36:15.418Z,63.40
2022-08-27T11:39:13.442Z,62.50
2022-08-27T11:42:20.031Z,62.50
2022-08-27T11:45:17.410Z,61.20
2022-08-27T11:48:03.425Z,60.40
2022-08-27T11:53:52.341Z,61.80
2022-08-27T11:56:43.445Z,60.90
2022-08-27T11:59:27.882Z,61.70
2022-08-27T12:02:42.420Z,63.10
2022-08-27T12:05:40.808Z,60.80
2022-08-27T12:08:44.453Z,62.60
2022-08-27T12:12:23.473Z,61.60
2022-08-27T12:15:15.010Z,60.00
2022-08-27T12:18:24.473Z,62.30
2022-08-27T12:21:27.881Z,61.40
2022-08-27T12:24:28.435Z,61.20
2022-08-27T12:27:26.428Z,61.30
2022-08-27T12:30:29.503Z,61.60
2022-08-27T12:33:29.445Z,61.20
2022-08-27T12:36:40.438Z,59.80
2022-08-27T12:39:26.454Z,58.30
2022-08-27T12:42:15.468Z,58.40
2022-08-27T12:44:57.589Z,60.00
2022-08-27T12:47:53.448Z,58.00
2022-08-27T12:50:37.476Z,58.00
2022-08-27T12:53:45.571Z,57.80
2022-08-27T12:56:22.767Z,57.20
2022-08-27T12:59:22.456Z,54.80
2022-08-27T13:02:16.434Z,55.10
2022-08-27T13:05:04.474Z,56.00
2022-08-27T13:07:46.484Z,57.00
2022-08-27T13:10:45.480Z,56.80
2022-08-27T13:13:21.521Z,56.10
2022-08-27T13:16:14.490Z,56.50
2022-08-27T13:18:55.124Z,56.00
2022-08-27T13:21:43.455Z,55.30
2022-08-27T13:24:21.754Z,55.90
2022-08-27T13:27:08.446Z,54.10
2022-08-27T13:29:43.594Z,55.70
2022-08-27T13:35:06.630Z,53.90
2022-08-27T13:38:05.489Z,52.30
2022-08-27T13:41:02.243Z,53.70
2022-08-27T13:43:58.559Z,51.70
2022-08-27T13:46:33.980Z,49.10
2022-08-27T13:49:39.972Z,49.50
2022-08-27T13:52:35.568Z,49.00
2022-08-27T13:55:30.472Z,50.80
2022-08-27T13:58:18.546Z,50.20
2022-08-27T14:01:06.495Z,50.90
2022-08-27T14:04:09.932Z,49.80
2022-08-27T14:06:59.495Z,48.30
2022-08-27T14:09:33.158Z,48.60
2022-08-27T14:12:23.497Z,47.50
2022-08-27T14:15:21.501Z,47.00
2022-08-27T14:18:01.604Z,46.50
2022-08-27T14:20:48.520Z,48.50
2022-08-27T14:23:21.624Z,47.40
2022-08-27T14:26:08.497Z,49.90
2022-08-27T14:28:49.517Z,48.60
2022-08-27T14:31:44.526Z,47.70
2022-08-27T14:34:31.497Z,47.80
2022-08-27T14:39:52.555Z,47.60
2022-08-27T14:42:28.606Z,47.10
2022-08-27T14:45:16.507Z,47.50
2022-08-27T14:47:51.476Z,47.40
2022-08-27T14:50:38.515Z,46.80
2022-08-27T14:53:12.612Z,48.20
2022-08-27T14:56:08.537Z,51.70
2022-08-27T14:59:02.498Z,53.50
2022-08-27T15:01:49.603Z,53.40
2022-08-27T15:04:23.670Z,54.20
2022-08-27T15:07:12.514Z,56.00
2022-08-27T15:12:34.515Z,55.00
2022-08-27T15:15:08.595Z,52.90
2022-08-27T15:17:55.509Z,52.00
2022-08-27T15:23:19.535Z,52.70
2022-08-27T15:25:53.602Z,54.20
2022-08-27T15:28:40.541Z,54.70
2022-08-27T15:31:14.665Z,54.80
2022-08-27T15:34:01.551Z,55.10
2022-08-27T15:36:35.672Z,54.10
2022-08-27T15:39:23.519Z,54.10
2022-08-27T15:44:59.548Z,55.10
2022-08-27T15:47:33.633Z,55.90
2022-08-27T15:50:20.541Z,55.80
2022-08-27T15:52:58.302Z,56.30
2022-08-27T15:55:48.497Z,57.60
2022-08-27T15:58:22.567Z,57.90
2022-08-27T16:01:15.563Z,58.20
2022-08-27T16:03:52.048Z,57.80
2022-08-27T16:06:38.514Z,57.70
2022-08-27T16:09:12.575Z,58.00
2022-08-27T16:11:59.518Z,57.80
2022-08-27T16:14:33.586Z,58.00
2022-08-27T16:17:20.509Z,59.00
2022-08-27T16:22:43.514Z,62.60
2022-08-27T16:28:08.594Z,65.90
2022-08-27T16:33:30.523Z,68.80
2022-08-27T16:36:05.082Z,69.50
2022-08-27T16:38:52.560Z,70.20
2022-08-27T16:41:26.626Z,70.50
2022-08-27T16:44:14.523Z,70.10
2022-08-27T16:49:55.611Z,68.70
2022-08-27T16:55:18.557Z,67.90
2022-08-27T16:57:52.593Z,68.60
2022-08-27T17:00:39.560Z,69.40
2022-08-27T17:03:14.615Z,69.60
2022-08-27T17:06:01.559Z,70.40
2022-08-27T17:08:45.792Z,71.70
2022-08-27T17:11:37.568Z,72.40
2022-08-27T17:17:00.560Z,74.10
2022-08-27T17:19:34.873Z,74.90
2022-08-27T17:22:21.556Z,76.10
2022-08-27T17:27:49.568Z,78.00
2022-08-27T17:30:23.601Z,78.10
2022-08-27T17:33:10.560Z,79.10
2022-08-27T17:38:45.546Z,81.10
2022-08-27T17:41:40.562Z,82.30
2022-08-27T17:44:35.025Z,83.90
2022-08-27T17:47:21.549Z,85.40
2022-08-27T17:50:01.560Z,86.60
2022-08-27T17:52:48.570Z,87.80
2022-08-27T17:58:13.583Z,90.60
2022-08-27T18:00:53.633Z,91.70
2022-08-27T18:03:44.269Z,91.30
2022-08-27T18:09:15.571Z,91.60
2022-08-27T18:14:37.176Z,92.10
2022-08-27T18:17:24.616Z,92.30
2022-08-27T18:20:04.575Z,91.90
2022-08-27T18:28:25.561Z,90.60
2022-08-27T18:30:59.287Z,90.50
2022-08-27T18:36:27.514Z,90.50
2022-08-27T18:41:49.222Z,91.70
2022-08-27T18:47:10.135Z,93.00
2022-08-27T18:52:31.199Z,94.30
2022-08-27T18:55:24.607Z,94.80
2022-08-27T18:57:58.163Z,96.00
2022-08-27T19:03:35.551Z,97.50
2022-08-27T19:11:44.701Z,99.50
2022-08-27T19:14:31.613Z,99.90
2022-08-27T19:17:14.606Z,99.90
2022-08-27T19:20:09.578Z,99.90
2022-08-27T19:25:38.598Z,99.90
2022-08-27T19:28:32.614Z,99.90
2022-08-27T19:33:53.629Z,99.90
2022-08-27T19:36:28.675Z,99.90
2022-08-27T19:44:38.612Z,99.90
2022-08-27T19:47:15.681Z,99.90
2022-08-27T19:50:04.626Z,99.90
2022-08-27T19:52:38.758Z,99.90
2022-08-27T20:06:17.613Z,99.90
2022-08-27T20:08:57.680Z,99.90
2022-08-27T20:11:37.630Z,99.90
2022-08-27T20:16:59.497Z,99.90
2022-08-27T20:22:29.670Z,99.90
2022-08-27T20:33:24.659Z,99.90
2022-08-27T20:36:12.663Z,99.90
2022-08-27T20:41:34.665Z,99.90
2022-08-27T20:44:14.647Z,99.90
2022-08-27T20:49:41.637Z,99.90
2022-08-27T20:58:11.575Z,99.90
2022-08-27T21:00:51.735Z,99.90
2022-08-27T21:03:39.636Z,99.90
2022-08-27T21:06:13.264Z,99.90
2022-08-27T21:09:00.661Z,99.90
2022-08-27T21:11:34.246Z,99.90
2022-08-27T21:14:20.670Z,99.90
2022-08-27T21:16:57.690Z,99.90
2022-08-27T21:19:46.663Z,99.90
2022-08-27T21:22:21.427Z,99.90
2022-08-27T21:27:42.640Z,99.90
2022-08-27T21:30:30.693Z,99.90
2022-08-27T21:33:04.745Z,99.90
2022-08-27T21:35:52.672Z,99.90
2022-08-27T21:38:26.277Z,99.90
2022-08-27T21:44:08.677Z,99.90
2022-08-27T21:47:02.682Z,99.90
2022-08-27T21:49:50.675Z,99.90
2022-08-27T21:55:18.684Z,99.90
2022-08-27T21:57:52.769Z,99.90
2022-08-27T22:03:20.286Z,99.90
2022-08-27T22:22:21.690Z,99.90
2022-08-27T22:24:55.833Z,99.90
2022-08-27T22:33:05.683Z,99.90
2022-08-27T22:38:26.693Z,99.90
2022-08-27T22:52:01.848Z,99.90
2022-08-27T22:54:41.689Z,99.90
2022-08-27T23:00:03.713Z,99.90
2022-08-27T23:13:45.358Z,99.90
2022-08-27T23:16:25.795Z,99.90
2022-08-27T23:19:12.731Z,99.90
2022-08-27T23:21:53.722Z,99.90
2022-08-27T23:24:40.717Z,99.90
2022-08-27T23:27:29.600Z,99.90
2022-08-27T23:30:18.749Z,99.90
2022-08-27T23:33:12.705Z,99.90
2022-08-27T23:36:06.753Z,99.90
2022-08-27T23:39:00.711Z,99.90
2022-08-27T23:41:48.768Z,99.90
2022-08-27T23:47:09.722Z,99.90
2022-08-27T23:49:49.738Z,99.90
2022-08-27T23:52:36.754Z,99.90
2022-08-27T23:55:18.751Z,99.90
2022-08-27T23:58:13.856Z,99.90
